Time;durP1;ratioP1;P1;durP2;ratioP2;P2;SDS_P1;SDS_P2;PMS_P1;PMS_P2;Temp;Humidity;BMP_temperature;BMP_pressure;BME280_temperature;BME280_humidity;BME280_pressure;Samples;Min_cycle;Max_cycle;Signal;HPM_P1;HPM_P2
2022/10/04 00:00:23;;;;;;;;;;;;;9.30;97410.80;;;;111119;1247;41168;-60
2022/10/04 00:03:17;;;;;;;;;;;;;9.26;97411.40;;;;111067;1249;41136;-60
2022/10/04 00:05:47;;;;;;;;;;;;;9.20;97412.60;;;;111140;1247;41591;-60
2022/10/04 00:08:21;;;;;;;;;;;;;9.20;97408.60;;;;111171;1247;42908;-60
2022/10/04 00:11:00;;;;;;;;;;;;;9.20;97408.00;;;;111210;1247;42306;-60
2022/10/04 00:13:28;;;;;;;;;;;;;9.20;97415.20;;;;111113;1249;41855;-60
2022/10/04 00:15:57;;;;;;;;;;;;;9.14;97413.80;;;;111104;1248;42207;-60
2022/10/04 00:18:44;;;;;;;;;;;;;9.10;97414.60;;;;110962;1250;41185;-61
2022/10/04 00:21:13;;;;;;;;;;;;;9.10;97418.40;;;;110904;1249;41604;-60
2022/10/04 00:23:43;;;;;;;;;;;;;9.10;97417.00;;;;110975;1249;41156;-61
2022/10/04 00:26:24;;;;;;;;;;;;;9.10;97413.80;;;;110785;1249;41140;-60
2022/10/04 00:28:54;;;;;;;;;;;;;9.10;97413.80;;;;110883;1250;42531;-60
2022/10/04 00:31:23;;;;;;;;;;;;;9.04;97415.20;;;;110987;1250;41139;-60
2022/10/04 00:33:53;;;;;;;;;;;;;9.00;97413.20;;;;110697;1250;42368;-60
2022/10/04 00:36:25;;;;;;;;;;;;;9.00;97414.20;;;;110758;1250;41616;-60
2022/10/04 00:39:10;;;;;;;;;;;;;9.00;97419.80;;;;110809;1249;41192;-60
2022/10/04 00:41:49;;;;;;;;;;;;;9.00;97413.40;;;;110660;1251;41452;-60
2022/10/04 00:44:22;;;;;;;;;;;;;9.00;97415.80;;;;110716;1250;41134;-60
2022/10/04 00:46:50;;;;;;;;;;;;;9.00;97411.80;;;;110734;1250;41696;-60
2022/10/04 00:49:20;;;;;;;;;;;;;9.00;97413.40;;;;110801;1249;41153;-60
2022/10/04 00:51:54;;;;;;;;;;;;;9.00;97413.60;;;;111034;1249;41425;-60
2022/10/04 00:54:55;;;;;;;;;;;;;8.90;97405.80;;;;111005;1247;41254;-60
2022/10/04 00:57:27;;;;;;;;;;;;;8.94;97404.00;;;;110639;1249;41152;-60
2022/10/04 00:59:57;;;;;;;;;;;;;8.90;97403.80;;;;111015;1248;41375;-60
2022/10/04 01:02:26;;;;;;;;;;;;;8.90;97406.60;;;;110796;1250;41154;-61
2022/10/04 01:04:58;;;;;;;;;;;;;8.84;97411.20;;;;111005;1247;42082;-60
2022/10/04 01:07:28;;;;;;;;;;;;;8.80;97409.80;;;;111058;1249;41140;-60
2022/10/04 01:09:59;;;;;;;;;;;;;8.80;97409.20;;;;110999;1248;41154;-61
2022/10/04 01:12:42;;;;;;;;;;;;;8.80;97414.60;;;;111006;1248;41257;-60
2022/10/04 01:15:32;;;;;;;;;;;;;8.80;97411.60;;;;111052;1249;41340;-61
2022/10/04 01:18:06;;;;;;;;;;;;;8.90;97410.60;;;;110973;1249;41100;-60
2022/10/04 01:20:56;;;;;;;;;;;;;8.90;97412.40;;;;111001;1251;41165;-59
2022/10/04 01:23:37;;;;;;;;;;;;;8.90;97408.80;;;;110646;1250;41268;-61
2022/10/04 01:26:05;;;;;;;;;;;;;8.90;97410.00;;;;110844;1250;41268;-60
2022/10/04 01:28:34;;;;;;;;;;;;;9.00;97410.00;;;;110757;1250;41929;-60
2022/10/04 01:31:02;;;;;;;;;;;;;9.00;97404.60;;;;110941;1250;41178;-61
2022/10/04 01:33:31;;;;;;;;;;;;;9.00;97410.20;;;;110978;1250;41305;-61
2022/10/04 01:36:00;;;;;;;;;;;;;8.94;97409.00;;;;110723;1249;41145;-61
2022/10/04 01:38:29;;;;;;;;;;;;;9.00;97412.00;;;;110699;1250;41155;-61
2022/10/04 01:40:59;;;;;;;;;;;;;9.00;97411.40;;;;110907;1250;41204;-60
2022/10/04 01:43:30;;;;;;;;;;;;;9.00;97416.80;;;;110718;1251;41260;-60
2022/10/04 01:46:08;;;;;;;;;;;;;9.00;97423.40;;;;110895;1250;41171;-61
2022/10/04 01:48:36;;;;;;;;;;;;;9.00;97424.20;;;;110926;1249;42373;-61
2022/10/04 01:51:06;;;;;;;;;;;;;9.00;97420.00;;;;110681;1250;41266;-60
2022/10/04 01:53:39;;;;;;;;;;;;;9.06;97423.40;;;;110744;1249;41389;-61
2022/10/04 01:56:08;;;;;;;;;;;;;9.10;97423.20;;;;110784;1249;41151;-61
2022/10/04 01:58:44;;;;;;;;;;;;;9.10;97420.00;;;;111022;1249;41173;-60
2022/10/04 02:01:16;;;;;;;;;;;;;9.10;97421.40;;;;110670;1250;41269;-60
2022/10/04 02:03:54;;;;;;;;;;;;;9.10;97424.40;;;;110681;1249;41204;-60
2022/10/04 02:06:22;;;;;;;;;;;;;9.10;97425.40;;;;111006;1249;41161;-60
2022/10/04 02:08:56;;;;;;;;;;;;;9.10;97423.80;;;;111035;1249;41143;-60
2022/10/04 02:11:26;;;;;;;;;;;;;9.10;97431.40;;;;111007;1248;41133;-60
2022/10/04 02:13:54;;;;;;;;;;;;;9.10;97431.40;;;;111056;1247;41540;-60
2022/10/04 02:16:23;;;;;;;;;;;;;9.10;97428.00;;;;111056;1247;42376;-60
2022/10/04 02:18:51;;;;;;;;;;;;;9.10;97432.40;;;;111041;1249;41160;-60
2022/10/04 02:21:21;;;;;;;;;;;;;9.18;97428.40;;;;110634;1250;41152;-60
2022/10/04 02:23:50;;;;;;;;;;;;;9.20;97432.00;;;;110988;1248;41766;-60
2022/10/04 02:26:20;;;;;;;;;;;;;9.20;97434.20;;;;110994;1249;42388;-60
2022/10/04 02:28:48;;;;;;;;;;;;;9.30;97434.20;;;;111020;1249;41614;-60
2022/10/04 02:34:05;;;;;;;;;;;;;9.30;97438.40;;;;111099;1249;41605;-60
2022/10/04 02:36:34;;;;;;;;;;;;;9.30;97437.60;;;;111107;1249;41615;-60
2022/10/04 02:39:03;;;;;;;;;;;;;9.30;97436.40;;;;111106;1247;41136;-60
2022/10/04 02:41:32;;;;;;;;;;;;;9.30;97434.00;;;;111087;1248;41724;-60
2022/10/04 02:44:12;;;;;;;;;;;;;9.20;97436.60;;;;111091;1248;41313;-60
2022/10/04 02:46:49;;;;;;;;;;;;;9.20;97439.00;;;;111119;1247;41187;-60
2022/10/04 02:49:19;;;;;;;;;;;;;9.20;97437.80;;;;111136;1247;41159;-60
2022/10/04 02:51:52;;;;;;;;;;;;;9.20;97441.20;;;;111143;1249;41152;-60
2022/10/04 02:54:26;;;;;;;;;;;;;9.20;97439.20;;;;111086;1248;41706;-59
2022/10/04 02:56:56;;;;;;;;;;;;;9.20;97445.40;;;;111093;1249;42889;-60
2022/10/04 02:59:25;;;;;;;;;;;;;9.20;97451.40;;;;111075;1248;41977;-60
2022/10/04 03:01:57;;;;;;;;;;;;;9.20;97454.00;;;;111066;1247;41528;-60
2022/10/04 03:04:29;;;;;;;;;;;;;9.20;97448.60;;;;111069;1247;42476;-60
2022/10/04 03:06:57;;;;;;;;;;;;;9.20;97445.40;;;;111093;1247;41153;-60
2022/10/04 03:09:25;;;;;;;;;;;;;9.30;97450.60;;;;111040;1249;43031;-60
2022/10/04 03:11:56;;;;;;;;;;;;;9.20;97453.40;;;;111084;1248;41144;-60
2022/10/04 03:14:25;;;;;;;;;;;;;9.26;97455.00;;;;111073;1247;41257;-60
2022/10/04 03:16:54;;;;;;;;;;;;;9.30;97462.60;;;;110895;1249;41172;-60
2022/10/04 03:19:24;;;;;;;;;;;;;9.30;97460.20;;;;111080;1248;41849;-60
2022/10/04 03:21:52;;;;;;;;;;;;;9.30;97466.40;;;;111082;1249;41254;-60
2022/10/04 03:24:24;;;;;;;;;;;;;9.20;97459.80;;;;111118;1248;41145;-60
2022/10/04 03:26:53;;;;;;;;;;;;;9.10;97465.00;;;;111104;1248;42134;-60
2022/10/04 03:29:22;;;;;;;;;;;;;9.10;97465.80;;;;111088;1247;41196;-60
2022/10/04 03:31:50;;;;;;;;;;;;;9.10;97468.40;;;;111082;1248;41138;-62
2022/10/04 03:34:20;;;;;;;;;;;;;9.10;97468.00;;;;111139;1249;42122;-60
2022/10/04 03:36:48;;;;;;;;;;;;;9.06;97465.80;;;;111129;1250;41271;-60
2022/10/04 03:39:36;;;;;;;;;;;;;9.00;97469.20;;;;111064;1248;41780;-61
2022/10/04 03:42:09;;;;;;;;;;;;;9.00;97475.80;;;;111098;1249;41741;-60
2022/10/04 03:44:36;;;;;;;;;;;;;8.90;97472.20;;;;111067;1249;41268;-60
2022/10/04 03:47:09;;;;;;;;;;;;;8.90;97475.80;;;;110965;1249;41614;-60
2022/10/04 03:49:37;;;;;;;;;;;;;8.90;97471.60;;;;111113;1248;41791;-60
2022/10/04 03:52:06;;;;;;;;;;;;;8.80;97474.40;;;;111132;1249;41135;-60
2022/10/04 03:54:33;;;;;;;;;;;;;8.80;97478.20;;;;111123;1248;41152;-60
2022/10/04 03:57:01;;;;;;;;;;;;;8.80;97486.60;;;;111038;1249;41147;-59
2022/10/04 03:59:29;;;;;;;;;;;;;8.80;97493.20;;;;111077;1248;41250;-60
2022/10/04 04:02:17;;;;;;;;;;;;;8.80;97496.60;;;;111066;1248;41258;-60
2022/10/04 04:05:01;;;;;;;;;;;;;8.74;97499.60;;;;111040;1248;41124;-60
2022/10/04 04:07:32;;;;;;;;;;;;;8.70;97500.80;;;;110925;1250;41236;-60
2022/10/04 04:10:16;;;;;;;;;;;;;8.78;97503.20;;;;111094;1249;41131;-60
2022/10/04 04:12:47;;;;;;;;;;;;;8.80;97510.40;;;;111068;1248;41877;-60
2022/10/04 04:15:15;;;;;;;;;;;;;8.80;97508.80;;;;111049;1247;41786;-60
2022/10/04 04:17:52;;;;;;;;;;;;;8.80;97506.80;;;;111044;1249;42072;-60
2022/10/04 04:20:21;;;;;;;;;;;;;8.80;97512.60;;;;111087;1248;41719;-60
2022/10/04 04:22:57;;;;;;;;;;;;;8.80;97518.60;;;;110980;1248;41161;-60
2022/10/04 04:25:25;;;;;;;;;;;;;8.76;97520.20;;;;110797;1249;42885;-60
2022/10/04 04:27:55;;;;;;;;;;;;;8.70;97516.20;;;;111112;1248;41270;-60
2022/10/04 04:30:23;;;;;;;;;;;;;8.70;97517.40;;;;111061;1248;41139;-59
2022/10/04 04:32:51;;;;;;;;;;;;;8.64;97511.20;;;;111124;1249;41709;-59
2022/10/04 04:35:23;;;;;;;;;;;;;8.60;97518.00;;;;111122;1248;41758;-58
2022/10/04 04:38:13;;;;;;;;;;;;;8.60;97523.20;;;;111103;1248;41125;-58
2022/10/04 04:40:41;;;;;;;;;;;;;8.60;97531.00;;;;110741;1251;41164;-59
2022/10/04 04:43:09;;;;;;;;;;;;;8.60;97532.40;;;;111057;1248;41160;-59
2022/10/04 04:45:37;;;;;;;;;;;;;8.60;97533.60;;;;111068;1248;42294;-60
2022/10/04 04:48:05;;;;;;;;;;;;;8.60;97532.40;;;;110832;1249;41149;-60
2022/10/04 04:50:34;;;;;;;;;;;;;8.60;97531.60;;;;110761;1250;41149;-60
2022/10/04 04:53:15;;;;;;;;;;;;;8.60;97532.80;;;;111097;1248;42193;-58
2022/10/04 04:56:01;;;;;;;;;;;;;8.60;97540.00;;;;111109;1248;42379;-58
2022/10/04 04:58:31;;;;;;;;;;;;;8.60;97537.80;;;;111093;1249;41989;-60
2022/10/04 05:01:00;;;;;;;;;;;;;8.60;97534.00;;;;111093;1248;41164;-59
2022/10/04 05:03:30;;;;;;;;;;;;;8.60;97538.60;;;;111134;1248;41193;-60
2022/10/04 05:06:01;;;;;;;;;;;;;8.60;97539.20;;;;111082;1249;41704;-60
2022/10/04 05:08:30;;;;;;;;;;;;;8.70;97542.20;;;;111115;1247;41682;-60
2022/10/04 05:11:07;;;;;;;;;;;;;8.70;97548.00;;;;111103;1248;41240;-60
2022/10/04 05:13:40;;;;;;;;;;;;;8.70;97547.20;;;;111037;1248;41267;-60
2022/10/04 05:16:16;;;;;;;;;;;;;8.70;97550.00;;;;111049;1249;41196;-60
2022/10/04 05:18:43;;;;;;;;;;;;;8.72;97554.00;;;;111080;1248;41600;-59
2022/10/04 05:21:10;;;;;;;;;;;;;8.80;97550.60;;;;111052;1248;42062;-60
2022/10/04 05:23:37;;;;;;;;;;;;;8.80;97553.60;;;;111044;1248;41143;-59
2022/10/04 05:26:08;;;;;;;;;;;;;8.90;97560.80;;;;111068;1249;41524;-60
2022/10/04 05:28:36;;;;;;;;;;;;;8.90;97561.40;;;;111143;1248;41151;-60
2022/10/04 05:31:08;;;;;;;;;;;;;8.98;97570.60;;;;111101;1249;41157;-60
2022/10/04 05:33:40;;;;;;;;;;;;;9.00;97572.20;;;;111099;1248;41822;-60
2022/10/04 05:36:10;;;;;;;;;;;;;9.10;97580.20;;;;111097;1247;41631;-60
2022/10/04 05:38:39;;;;;;;;;;;;;9.10;97592.60;;;;110853;1248;400365;-60
2022/10/04 05:41:21;;;;;;;;;;;;;9.20;97590.20;;;;111126;1248;41999;-60
2022/10/04 05:43:49;;;;;;;;;;;;;9.20;97592.20;;;;111085;1248;41149;-60
2022/10/04 05:46:19;;;;;;;;;;;;;9.30;97592.00;;;;111073;1248;41136;-60
2022/10/04 05:48:48;;;;;;;;;;;;;9.40;97588.20;;;;111107;1248;41735;-60
2022/10/04 05:51:22;;;;;;;;;;;;;9.40;97589.00;;;;111116;1249;41136;-60
2022/10/04 05:53:50;;;;;;;;;;;;;9.50;97586.40;;;;111063;1248;41347;-60
2022/10/04 05:56:29;;;;;;;;;;;;;9.60;97589.40;;;;111114;1248;41769;-60
2022/10/04 05:59:15;;;;;;;;;;;;;9.80;97596.20;;;;111039;1250;41142;-61
2022/10/04 06:01:47;;;;;;;;;;;;;9.90;97591.20;;;;110999;1250;41586;-60
2022/10/04 06:04:25;;;;;;;;;;;;;10.06;97591.00;;;;111090;1248;41146;-61
2022/10/04 06:06:57;;;;;;;;;;;;;10.20;97590.60;;;;111075;1248;41762;-58
2022/10/04 06:09:43;;;;;;;;;;;;;10.30;97601.20;;;;111051;1248;41993;-60
2022/10/04 06:12:19;;;;;;;;;;;;;10.50;97599.80;;;;111061;1249;41246;-60
2022/10/04 06:14:50;;;;;;;;;;;;;10.70;97609.80;;;;110729;1250;41151;-61
2022/10/04 06:17:29;;;;;;;;;;;;;10.88;97613.80;;;;111070;1248;41141;-60
2022/10/04 06:19:59;;;;;;;;;;;;;11.00;97621.80;;;;111036;1246;41141;-61
2022/10/04 06:22:26;;;;;;;;;;;;;11.20;97619.40;;;;111051;1248;41901;-60
2022/10/04 06:25:00;;;;;;;;;;;;;11.40;97616.00;;;;111052;1248;41137;-62
2022/10/04 06:27:43;;;;;;;;;;;;;11.58;97615.20;;;;111081;1248;41889;-61
2022/10/04 06:30:13;;;;;;;;;;;;;11.80;97617.00;;;;111104;1248;41152;-61
2022/10/04 06:32:59;;;;;;;;;;;;;11.82;97623.20;;;;111163;1248;41135;-60
2022/10/04 06:35:45;;;;;;;;;;;;;11.90;97624.00;;;;111132;1248;41715;-61
2022/10/04 06:38:22;;;;;;;;;;;;;12.10;97631.20;;;;111052;1248;41158;-61
2022/10/04 06:40:53;;;;;;;;;;;;;12.20;97632.20;;;;111068;1248;42419;-59
2022/10/04 06:43:20;;;;;;;;;;;;;12.20;97635.60;;;;111086;1247;41133;-60
2022/10/04 06:46:20;;;;;;;;;;;;;12.30;97638.60;;;;111030;1249;42002;-60
2022/10/04 06:49:06;;;;;;;;;;;;;12.50;97647.20;;;;110780;1247;41706;-60
2022/10/04 06:51:39;;;;;;;;;;;;;12.60;97642.20;;;;111095;1249;41749;-59
2022/10/04 06:54:26;;;;;;;;;;;;;12.52;97647.60;;;;111087;1248;41719;-59
2022/10/04 06:56:54;;;;;;;;;;;;;12.70;97647.20;;;;111096;1248;41753;-59
2022/10/04 06:59:28;;;;;;;;;;;;;12.80;97651.60;;;;111093;1248;41598;-58
2022/10/04 07:01:58;;;;;;;;;;;;;12.90;97648.80;;;;111123;1248;41140;-58
2022/10/04 07:04:35;;;;;;;;;;;;;12.80;97654.40;;;;111061;1248;41619;-59
2022/10/04 07:07:35;;;;;;;;;;;;;12.64;97652.20;;;;111076;1249;41287;-59
2022/10/04 07:10:21;;;;;;;;;;;;;12.88;97655.60;;;;111067;1248;41609;-60
2022/10/04 07:13:09;;;;;;;;;;;;;13.10;97656.40;;;;111005;1248;40891;-60
2022/10/04 07:15:43;;;;;;;;;;;;;13.22;97663.60;;;;111047;1247;41560;-60
2022/10/04 07:18:13;;;;;;;;;;;;;13.30;97669.20;;;;111063;1246;41209;-60
2022/10/04 07:20:40;;;;;;;;;;;;;13.40;97664.40;;;;111077;1246;41150;-60
2022/10/04 07:23:13;;;;;;;;;;;;;13.40;97664.60;;;;111089;1248;41143;-60
2022/10/04 07:25:43;;;;;;;;;;;;;13.30;97666.80;;;;111022;1248;41677;-60
2022/10/04 07:31:02;;;;;;;;;;;;;13.86;97669.40;;;;111052;1248;41719;-60
2022/10/04 07:33:34;;;;;;;;;;;;;14.10;97668.00;;;;111116;1247;41155;-60
2022/10/04 07:36:06;;;;;;;;;;;;;14.40;97668.60;;;;111129;1247;41610;-60
2022/10/04 07:38:35;;;;;;;;;;;;;14.60;97669.00;;;;111187;1248;41252;-60
2022/10/04 07:41:07;;;;;;;;;;;;;14.72;97671.40;;;;111062;1247;41837;-60
2022/10/04 07:43:40;;;;;;;;;;;;;14.80;97675.20;;;;111059;1248;41156;-59
2022/10/04 07:46:16;;;;;;;;;;;;;14.80;97679.00;;;;111071;1248;41357;-60
2022/10/04 07:48:47;;;;;;;;;;;;;15.00;97679.40;;;;111069;1248;41672;-60
2022/10/04 07:51:19;;;;;;;;;;;;;15.20;97684.20;;;;111086;1248;41595;-60
2022/10/04 07:54:00;;;;;;;;;;;;;15.30;97688.40;;;;111123;1248;41134;-60
2022/10/04 07:56:46;;;;;;;;;;;;;15.38;97691.60;;;;111081;1248;42462;-59
2022/10/04 07:59:33;;;;;;;;;;;;;15.30;97697.00;;;;111083;1248;41137;-59
2022/10/04 08:02:11;;;;;;;;;;;;;15.30;97696.00;;;;111149;1248;41786;-60
2022/10/04 08:04:41;;;;;;;;;;;;;15.20;97700.60;;;;111166;1248;42095;-60
2022/10/04 08:07:14;;;;;;;;;;;;;15.10;97703.60;;;;111143;1247;42560;-59
2022/10/04 08:09:57;;;;;;;;;;;;;14.98;97701.20;;;;111086;1248;41609;-59
2022/10/04 08:12:27;;;;;;;;;;;;;14.80;97703.40;;;;111102;1248;41606;-59
2022/10/04 08:15:12;;;;;;;;;;;;;14.74;97710.40;;;;111050;1248;40867;-59
2022/10/04 08:18:12;;;;;;;;;;;;;14.60;97711.60;;;;111070;1248;41153;-60
2022/10/04 08:20:46;;;;;;;;;;;;;14.50;97711.20;;;;110714;1248;41595;-60
2022/10/04 08:23:21;;;;;;;;;;;;;14.40;97718.40;;;;111042;1248;41949;-60
2022/10/04 08:25:55;;;;;;;;;;;;;14.40;97719.00;;;;111056;1248;41479;-59
2022/10/04 08:31:31;;;;;;;;;;;;;14.40;97719.20;;;;111101;1248;41253;-60
2022/10/04 08:34:07;;;;;;;;;;;;;14.14;97723.40;;;;111090;1248;41187;-60
2022/10/04 08:37:08;;;;;;;;;;;;;14.10;97721.80;;;;111044;1247;41254;-60
2022/10/04 08:39:54;;;;;;;;;;;;;13.82;97721.20;;;;110530;1249;41206;-60
2022/10/04 08:42:33;;;;;;;;;;;;;13.60;97724.20;;;;111051;1248;41148;-60
2022/10/04 08:45:06;;;;;;;;;;;;;13.50;97728.40;;;;111095;1247;41693;-60
2022/10/04 08:47:53;;;;;;;;;;;;;13.50;97731.80;;;;111088;1248;41151;-60
2022/10/04 08:50:23;;;;;;;;;;;;;13.50;97735.20;;;;111048;1247;41269;-60
2022/10/04 08:52:50;;;;;;;;;;;;;13.32;97735.80;;;;111041;1248;41255;-60
2022/10/04 08:55:37;;;;;;;;;;;;;13.40;97737.80;;;;111071;1247;42040;-60
2022/10/04 08:58:23;;;;;;;;;;;;;13.50;97740.20;;;;111067;1248;41263;-60
2022/10/04 09:00:57;;;;;;;;;;;;;13.50;97732.40;;;;110994;1247;41152;-60
2022/10/04 09:03:42;;;;;;;;;;;;;13.58;97742.00;;;;111097;1248;41148;-60
2022/10/04 09:06:30;;;;;;;;;;;;;13.64;97739.20;;;;111047;1248;42073;-60
2022/10/04 09:08:57;;;;;;;;;;;;;13.90;97739.60;;;;111118;1248;41550;-61
2022/10/04 09:11:31;;;;;;;;;;;;;14.40;97741.80;;;;111067;1249;41584;-60
2022/10/04 09:13:58;;;;;;;;;;;;;15.14;97743.80;;;;111077;1248;41118;-60
2022/10/04 09:16:45;;;;;;;;;;;;;15.56;97732.00;;;;111023;1248;42146;-60
2022/10/04 09:19:32;;;;;;;;;;;;;15.86;97737.40;;;;111079;1248;41169;-60
2022/10/04 09:22:00;;;;;;;;;;;;;15.44;97735.00;;;;111047;1248;41147;-60
2022/10/04 09:24:39;;;;;;;;;;;;;15.26;97740.80;;;;111065;1248;41146;-61
2022/10/04 09:27:09;;;;;;;;;;;;;15.64;97730.20;;;;111109;1247;41715;-63
2022/10/04 09:29:42;;;;;;;;;;;;;16.50;97738.80;;;;111048;1248;41127;-61
2022/10/04 09:32:12;;;;;;;;;;;;;17.58;97722.20;;;;111113;1247;41585;-60
2022/10/04 09:34:51;;;;;;;;;;;;;19.04;97730.00;;;;111014;1248;41149;-60
2022/10/04 09:37:37;;;;;;;;;;;;;19.80;97724.60;;;;111082;1247;41140;-60
2022/10/04 09:40:11;;;;;;;;;;;;;20.10;97733.40;;;;111055;1247;41253;-60
2022/10/04 09:42:44;;;;;;;;;;;;;20.20;97725.40;;;;111092;1248;41610;-60
2022/10/04 09:45:26;;;;;;;;;;;;;20.00;97723.00;;;;111095;1248;41156;-60
2022/10/04 09:48:00;;;;;;;;;;;;;20.14;97724.80;;;;110976;1248;41138;-61
2022/10/04 09:50:34;;;;;;;;;;;;;20.40;97724.00;;;;111017;1248;41723;-60
2022/10/04 09:53:05;;;;;;;;;;;;;19.56;97723.60;;;;111031;1250;42366;-60
2022/10/04 09:55:32;;;;;;;;;;;;;19.72;97720.00;;;;110656;1250;42233;-61
2022/10/04 09:58:18;;;;;;;;;;;;;19.90;97721.00;;;;110692;1248;41448;-58
2022/10/04 10:00:48;;;;;;;;;;;;;20.24;97724.80;;;;110681;1248;41562;-58
2022/10/04 10:03:25;;;;;;;;;;;;;20.66;97720.60;;;;110637;1250;41152;-59
2022/10/04 10:06:11;;;;;;;;;;;;;21.28;97722.80;;;;110651;1250;41163;-59
2022/10/04 10:09:01;;;;;;;;;;;;;21.50;97727.00;;;;110706;1250;41135;-60
2022/10/04 10:14:52;;;;;;;;;;;;;20.72;97728.20;;;;110702;1249;41268;-61
2022/10/04 10:17:35;;;;;;;;;;;;;19.98;97735.60;;;;110698;1250;41237;-60
2022/10/04 10:20:08;;;;;;;;;;;;;18.08;97736.40;;;;110633;1249;41630;-60
2022/10/04 10:22:54;;;;;;;;;;;;;18.00;97740.00;;;;110779;1250;41767;-60
2022/10/04 10:25:27;;;;;;;;;;;;;17.92;97743.80;;;;110692;1250;41146;-60
2022/10/04 10:28:14;;;;;;;;;;;;;17.50;97752.20;;;;110687;1249;41795;-60
2022/10/04 10:30:48;;;;;;;;;;;;;17.10;97752.80;;;;110665;1250;41261;-60
2022/10/04 10:33:24;;;;;;;;;;;;;16.72;97760.60;;;;110628;1250;41603;-59
2022/10/04 10:35:51;;;;;;;;;;;;;16.60;97764.20;;;;110741;1250;41362;-60
2022/10/04 10:38:24;;;;;;;;;;;;;15.66;97770.60;;;;110973;1249;41462;-60
2022/10/04 10:40:59;;;;;;;;;;;;;14.96;97770.80;;;;110867;1249;42468;-60
2022/10/04 10:44:06;;;;;;;;;;;;;14.12;97775.20;;;;110949;1250;41176;-60
2022/10/04 10:46:38;;;;;;;;;;;;;14.10;97778.80;;;;110237;1254;42329;-60
2022/10/04 10:49:07;;;;;;;;;;;;;14.20;97779.80;;;;110428;1257;41335;-60
2022/10/04 10:51:48;;;;;;;;;;;;;14.22;97777.20;;;;110645;1249;41141;-60
2022/10/04 10:54:29;;;;;;;;;;;;;14.40;97775.60;;;;110968;1248;41801;-60
2022/10/04 10:57:05;;;;;;;;;;;;;14.90;97753.60;;;;110634;1251;41161;-60
2022/10/04 10:59:49;;;;;;;;;;;;;16.14;97751.80;;;;110760;1250;41583;-60
2022/10/04 11:02:22;;;;;;;;;;;;;17.96;97744.40;;;;111027;1248;41152;-60
2022/10/04 11:05:22;;;;;;;;;;;;;18.76;97739.40;;;;110638;1249;41158;-60
2022/10/04 11:07:53;;;;;;;;;;;;;19.72;97733.20;;;;110785;1250;41203;-60
2022/10/04 11:10:20;;;;;;;;;;;;;20.64;97725.40;;;;110624;1250;41252;-60
2022/10/04 11:13:04;;;;;;;;;;;;;21.50;97715.40;;;;110627;1250;42499;-60
2022/10/04 11:15:50;;;;;;;;;;;;;22.26;97714.00;;;;110648;1250;41125;-60
2022/10/04 11:18:37;;;;;;;;;;;;;22.10;97707.60;;;;110717;1251;41275;-60
2022/10/04 11:21:10;;;;;;;;;;;;;22.62;97711.60;;;;110783;1250;41709;-60
2022/10/04 11:23:56;;;;;;;;;;;;;22.20;97711.40;;;;110650;1249;42377;-59
2022/10/04 11:26:26;;;;;;;;;;;;;22.58;97708.80;;;;110644;1250;41155;-59
2022/10/04 11:29:08;;;;;;;;;;;;;22.86;97708.20;;;;110699;1250;41165;-59
2022/10/04 11:31:53;;;;;;;;;;;;;22.92;97715.20;;;;111039;1247;41134;-59
2022/10/04 11:34:29;;;;;;;;;;;;;22.56;97712.40;;;;111036;1248;41183;-59
2022/10/04 11:37:15;;;;;;;;;;;;;22.48;97711.20;;;;110676;1250;41240;-59
2022/10/04 11:39:58;;;;;;;;;;;;;22.70;97710.00;;;;110715;1250;42376;-59
2022/10/04 11:42:37;;;;;;;;;;;;;23.82;97707.40;;;;110891;1249;41252;-59
2022/10/04 11:45:19;;;;;;;;;;;;;24.22;97697.80;;;;110951;1250;41151;-60
2022/10/04 11:47:46;;;;;;;;;;;;;24.50;97696.60;;;;110709;1250;41434;-60
2022/10/04 11:50:42;;;;;;;;;;;;;24.64;97696.60;;;;110745;1250;41204;-60
2022/10/04 11:53:17;;;;;;;;;;;;;25.72;97691.60;;;;110907;1249;41205;-60
2022/10/04 11:55:53;;;;;;;;;;;;;26.42;97694.20;;;;111318;1247;40742;-60
2022/10/04 11:58:30;;;;;;;;;;;;;27.10;97706.80;;;;111179;1247;42061;-60
2022/10/04 12:01:07;;;;;;;;;;;;;27.22;97697.60;;;;111129;1247;42157;-60
2022/10/04 12:03:37;;;;;;;;;;;;;26.96;97699.80;;;;110775;1251;41249;-60
2022/10/04 12:06:23;;;;;;;;;;;;;27.50;97711.00;;;;110707;1249;41146;-60
2022/10/04 12:09:03;;;;;;;;;;;;;27.78;97700.20;;;;110713;1250;41253;-60
2022/10/04 12:15:02;;;;;;;;;;;;;28.82;97710.40;;;;110935;1248;41150;-61
2022/10/04 12:17:51;;;;;;;;;;;;;28.40;97698.60;;;;110435;1250;41163;-61
2022/10/04 12:20:47;;;;;;;;;;;;;28.66;97690.20;;;;110401;1252;42412;-60
2022/10/04 12:23:41;;;;;;;;;;;;;29.40;97698.40;;;;110450;1250;41452;-61
2022/10/04 12:26:11;;;;;;;;;;;;;28.70;97697.40;;;;111040;1248;41243;-60
2022/10/04 12:29:00;;;;;;;;;;;;;28.82;97698.00;;;;111033;1247;41137;-60
2022/10/04 12:31:40;;;;;;;;;;;;;28.32;97695.20;;;;110865;1249;41154;-61
2022/10/04 12:34:43;;;;;;;;;;;;;27.28;97697.80;;;;110935;1251;41160;-60
2022/10/04 12:37:12;;;;;;;;;;;;;26.06;97700.00;;;;110295;1254;41275;-59
2022/10/04 12:39:42;;;;;;;;;;;;;26.66;97702.00;;;;110612;1250;41789;-60
2022/10/04 12:42:24;;;;;;;;;;;;;26.72;97704.80;;;;110607;1249;41328;-60
2022/10/04 12:45:02;;;;;;;;;;;;;27.20;97704.80;;;;110615;1250;41600;-59
2022/10/04 12:47:46;;;;;;;;;;;;;28.18;97709.00;;;;110675;1250;41270;-59
2022/10/04 12:50:32;;;;;;;;;;;;;28.64;97699.80;;;;110696;1249;41276;-60
2022/10/04 12:53:04;;;;;;;;;;;;;27.90;97703.60;;;;110721;1250;41162;-60
2022/10/04 12:56:09;;;;;;;;;;;;;26.90;97703.20;;;;110692;1250;41139;-60
2022/10/04 12:58:45;;;;;;;;;;;;;25.50;97717.80;;;;110198;1256;41165;-60
2022/10/04 13:01:25;;;;;;;;;;;;;25.32;97720.00;;;;110286;1256;41547;-60
2022/10/04 13:03:52;;;;;;;;;;;;;24.80;97729.40;;;;110449;1250;42530;-60
2022/10/04 13:06:19;;;;;;;;;;;;;23.46;97733.00;;;;110676;1250;42450;-60
2022/10/04 13:08:46;;;;;;;;;;;;;21.38;97740.80;;;;110699;1250;42486;-60
2022/10/04 13:11:20;;;;;;;;;;;;;20.56;97730.80;;;;110694;1249;41513;-60
2022/10/04 13:14:06;;;;;;;;;;;;;20.80;97746.60;;;;110675;1250;41144;-60
2022/10/04 13:16:45;;;;;;;;;;;;;19.88;97756.40;;;;110769;1249;41259;-60
2022/10/04 13:19:49;;;;;;;;;;;;;19.00;97757.00;;;;110838;1250;41156;-61
2022/10/04 13:22:32;;;;;;;;;;;;;18.54;97772.80;;;;110960;1249;41152;-60
2022/10/04 13:25:34;;;;;;;;;;;;;17.98;97778.60;;;;110772;1249;41264;-60
2022/10/04 13:28:20;;;;;;;;;;;;;17.48;97791.20;;;;110848;1250;41275;-61
2022/10/04 13:31:07;;;;;;;;;;;;;17.08;97807.20;;;;110638;1250;42296;-60
2022/10/04 13:33:44;;;;;;;;;;;;;16.36;97815.80;;;;110927;1251;41165;-60
2022/10/04 13:36:15;;;;;;;;;;;;;16.00;97822.20;;;;110823;1250;41149;-59
2022/10/04 13:38:54;;;;;;;;;;;;;15.34;97825.20;;;;110690;1249;41144;-59
2022/10/04 13:41:28;;;;;;;;;;;;;15.20;97824.60;;;;110986;1249;41888;-59
2022/10/04 13:44:14;;;;;;;;;;;;;15.14;97827.40;;;;111027;1249;42389;-59
2022/10/04 13:46:41;;;;;;;;;;;;;15.18;97822.60;;;;111084;1247;41762;-59
2022/10/04 13:49:27;;;;;;;;;;;;;15.10;97819.80;;;;111053;1248;41693;-60
2022/10/04 13:58:05;;;;;;;;;;;;;15.90;97829.60;;;;110852;1247;41528;-60
2022/10/04 14:00:33;;;;;;;;;;;;;16.20;97834.40;;;;111119;1247;41149;-60
2022/10/04 14:03:12;;;;;;;;;;;;;16.50;97834.40;;;;111125;1247;41287;-60
2022/10/04 14:05:44;;;;;;;;;;;;;16.78;97834.60;;;;111128;1247;42048;-60
2022/10/04 14:08:23;;;;;;;;;;;;;17.00;97839.20;;;;111044;1248;41188;-59
2022/10/04 14:10:50;;;;;;;;;;;;;17.10;97836.00;;;;111044;1247;41240;-60
2022/10/04 14:13:36;;;;;;;;;;;;;17.26;97833.80;;;;111018;1247;42375;-58
2022/10/04 14:16:22;;;;;;;;;;;;;17.38;97844.20;;;;111061;1247;41568;-60
2022/10/04 14:19:08;;;;;;;;;;;;;17.50;97848.80;;;;111049;1248;41206;-60
2022/10/04 14:21:50;;;;;;;;;;;;;17.62;97852.20;;;;111054;1248;41146;-60
2022/10/04 14:24:35;;;;;;;;;;;;;17.72;97856.60;;;;111025;1248;41263;-60
2022/10/04 14:27:08;;;;;;;;;;;;;17.90;97860.20;;;;111034;1248;41254;-59
2022/10/04 14:29:45;;;;;;;;;;;;;17.70;97856.20;;;;111066;1247;41696;-59
2022/10/04 14:32:27;;;;;;;;;;;;;16.80;97861.00;;;;111073;1248;43046;-59
2022/10/04 14:34:56;;;;;;;;;;;;;16.48;97864.20;;;;111052;1248;41191;-59
2022/10/04 14:37:42;;;;;;;;;;;;;15.64;97867.00;;;;110744;1248;41151;-59
2022/10/04 14:40:27;;;;;;;;;;;;;15.32;97872.00;;;;111093;1248;41148;-59
2022/10/04 14:42:54;;;;;;;;;;;;;15.12;97876.20;;;;111037;1247;41266;-60